createdAt,value
2023-05-07T08:05:59.340Z,99758.06
2023-05-07T08:08:28.503Z,99759.97
2023-05-07T08:10:57.570Z,99754.16
2023-05-07T08:13:32.376Z,99756.22
2023-05-07T08:16:02.333Z,99750.41
2023-05-07T08:18:31.767Z,99758.81
2023-05-07T08:21:05.408Z,99757.47
2023-05-07T08:23:35.600Z,99759.03
2023-05-07T08:26:06.273Z,99759.00
2023-05-07T08:28:35.148Z,99756.50
2023-05-07T08:31:03.997Z,99761.50
2023-05-07T08:33:38.351Z,99765.47
2023-05-07T08:36:09.709Z,99780.00
2023-05-07T08:38:41.830Z,99769.50
2023-05-07T08:41:12.477Z,99771.91
2023-05-07T08:43:44.240Z,99772.84
2023-05-07T08:46:14.525Z,99775.97
2023-05-07T08:48:47.033Z,99772.44
2023-05-07T08:51:20.586Z,99772.75
2023-05-07T08:53:52.052Z,99766.63
2023-05-07T08:56:27.986Z,99772.03
2023-05-07T08:59:00.427Z,99770.28
2023-05-07T09:01:31.561Z,99767.53
2023-05-07T09:04:00.674Z,99774.19
2023-05-07T09:06:32.987Z,99765.09
2023-05-07T09:09:07.000Z,99768.94
2023-05-07T09:11:36.293Z,99772.69
2023-05-07T09:14:06.184Z,99768.09
2023-05-07T09:16:41.446Z,99768.09
2023-05-07T09:19:11.272Z,99769.28
2023-05-07T09:21:46.983Z,99767.25
2023-05-07T09:24:18.309Z,99773.81
2023-05-07T09:26:47.667Z,99768.28
2023-05-07T09:29:18.939Z,99767.84
2023-05-07T09:31:48.544Z,99773.47
2023-05-07T09:34:19.477Z,99770.31
2023-05-07T09:36:52.151Z,99775.03
2023-05-07T09:39:22.067Z,99771.31
2023-05-07T09:41:52.752Z,99762.63
2023-05-07T09:44:27.953Z,99748.19
2023-05-07T09:46:57.507Z,99766.03
2023-05-07T09:49:37.028Z,99756.00
2023-05-07T09:52:12.612Z,99765.00
2023-05-07T09:54:49.642Z,99760.97
2023-05-07T09:57:22.874Z,99747.50
2023-05-07T09:59:59.232Z,99749.19
2023-05-07T10:02:33.616Z,99756.16
2023-05-07T10:05:04.170Z,99752.72
2023-05-07T10:07:38.314Z,99749.06
2023-05-07T10:10:13.236Z,99752.66
2023-05-07T10:12:46.136Z,99740.91
2023-05-07T10:15:21.372Z,99750.16
2023-05-07T10:17:56.342Z,99761.50
2023-05-07T10:20:28.352Z,99752.94
2023-05-07T10:23:01.500Z,99753.06
2023-05-07T10:25:38.596Z,99750.53
2023-05-07T10:28:16.162Z,99743.81
2023-05-07T10:31:02.313Z,99734.50
2023-05-07T10:33:40.273Z,99749.19
2023-05-07T10:36:10.766Z,99747.63
2023-05-07T10:38:42.097Z,99748.53
2023-05-07T10:41:13.497Z,99753.72
2023-05-07T10:43:48.167Z,99750.03
2023-05-07T10:46:27.878Z,99741.63
2023-05-07T10:49:12.693Z,99747.72
2023-05-07T10:52:17.159Z,99751.69
2023-05-07T10:55:23.148Z,99746.03
2023-05-07T11:00:59.373Z,99742.16
2023-05-07T11:03:33.729Z,99742.31
2023-05-07T11:06:14.798Z,99747.19
2023-05-07T11:08:58.421Z,99745.56
2023-05-07T11:11:48.551Z,99747.59
2023-05-07T11:14:51.079Z,99745.34
2023-05-07T11:17:28.368Z,99745.63
2023-05-07T11:20:05.842Z,99743.66
2023-05-07T11:22:48.747Z,99750.66
2023-05-07T11:25:25.811Z,99745.75
2023-05-07T11:28:12.011Z,99744.38
2023-05-07T11:30:49.658Z,99749.41
2023-05-07T11:33:24.389Z,99744.41
2023-05-07T11:35:55.968Z,99753.22
2023-05-07T11:38:29.605Z,99759.28
2023-05-07T11:41:00.071Z,99763.63
2023-05-07T11:43:29.447Z,99750.63
2023-05-07T11:46:08.244Z,99747.50
2023-05-07T11:48:38.946Z,99750.53
2023-05-07T11:51:10.294Z,99749.44
2023-05-07T11:53:40.652Z,99755.41
2023-05-07T11:56:10.207Z,99758.00
2023-05-07T11:58:39.162Z,99751.31
2023-05-07T12:01:10.503Z,99750.19
2023-05-07T12:03:45.016Z,99752.97
2023-05-07T12:06:15.109Z,99745.63
2023-05-07T12:08:47.055Z,99748.56
2023-05-07T12:11:19.731Z,99751.88
2023-05-07T12:13:48.573Z,99740.28
2023-05-07T12:16:18.210Z,99754.94
2023-05-07T12:18:49.428Z,99758.38
2023-05-07T12:21:18.985Z,99752.13
2023-05-07T12:23:47.590Z,99744.56
2023-05-07T12:26:16.588Z,99750.34
2023-05-07T12:28:45.902Z,99751.13
2023-05-07T12:31:17.376Z,99753.31
2023-05-07T12:33:48.145Z,99753.03
2023-05-07T12:36:17.660Z,99759.81
2023-05-07T12:38:46.416Z,99757.72
2023-05-07T12:41:15.243Z,99764.72
2023-05-07T12:43:47.215Z,99764.22
2023-05-07T12:46:18.510Z,99759.03
2023-05-07T12:48:49.100Z,99720.09
2023-05-07T12:51:19.570Z,99756.84
2023-05-07T12:53:48.515Z,99761.09
2023-05-07T12:56:19.072Z,99760.56
2023-05-07T12:58:47.755Z,99761.59
2023-05-07T13:01:20.490Z,99753.34
2023-05-07T13:03:52.439Z,99762.09
2023-05-07T13:06:21.365Z,99762.91
2023-05-07T13:08:50.101Z,99754.91
2023-05-07T13:11:18.911Z,99750.88
2023-05-07T13:13:47.696Z,99752.28
2023-05-07T13:16:16.617Z,99754.16
2023-05-07T13:18:47.293Z,99753.88
2023-05-07T13:21:17.630Z,99745.22
2023-05-07T13:23:46.540Z,99747.78
2023-05-07T13:26:26.240Z,99745.19
2023-05-07T13:28:56.020Z,99743.38
2023-05-07T13:31:25.378Z,99740.38
2023-05-07T13:33:54.193Z,99738.22
2023-05-07T13:36:24.656Z,99732.50
2023-05-07T13:38:53.934Z,99736.72
2023-05-07T13:41:23.222Z,99734.50
2023-05-07T13:43:52.341Z,99745.13
2023-05-07T13:46:21.422Z,99742.78
2023-05-07T13:48:50.380Z,99744.75
2023-05-07T13:51:19.423Z,99748.81
2023-05-07T13:53:49.613Z,99753.53
2023-05-07T13:56:18.563Z,99743.09
2023-05-07T13:58:59.009Z,99746.31
2023-05-07T14:01:30.084Z,99739.44
2023-05-07T14:04:00.886Z,99752.50
2023-05-07T14:06:30.223Z,99749.34
2023-05-07T14:09:01.484Z,99748.84
2023-05-07T14:11:30.480Z,99755.28
2023-05-07T14:13:59.587Z,99756.03
2023-05-07T14:16:28.673Z,99761.31
2023-05-07T14:18:58.855Z,99765.34
2023-05-07T14:21:27.662Z,99757.25
2023-05-07T14:23:57.838Z,99770.00
2023-05-07T14:26:29.083Z,99760.69
2023-05-07T14:28:59.952Z,99775.78
2023-05-07T14:31:29.124Z,99770.78
2023-05-07T14:33:59.441Z,99778.75
2023-05-07T14:36:28.383Z,99768.97
2023-05-07T14:38:58.288Z,99774.19
2023-05-07T14:41:28.751Z,99779.47
2023-05-07T14:43:57.502Z,99786.84
2023-05-07T14:46:26.157Z,99785.19
2023-05-07T14:48:55.428Z,99785.50
2023-05-07T14:51:24.822Z,99780.81
2023-05-07T14:53:53.726Z,99775.69
2023-05-07T14:56:22.715Z,99769.97
2023-05-07T14:58:52.989Z,99774.19
2023-05-07T15:01:23.059Z,99770.94
2023-05-07T15:03:52.127Z,99771.94
2023-05-07T15:06:20.903Z,99773.59
2023-05-07T15:08:49.822Z,99772.22
2023-05-07T15:11:20.003Z,99767.97
2023-05-07T15:13:49.262Z,99773.16
2023-05-07T15:16:20.743Z,99750.63
2023-05-07T15:18:49.692Z,99761.25
2023-05-07T15:21:19.220Z,99769.25
2023-05-07T15:23:49.264Z,99757.41
2023-05-07T15:26:18.234Z,99772.25
2023-05-07T15:28:47.132Z,99760.72
2023-05-07T15:31:15.723Z,99767.06
2023-05-07T15:33:46.187Z,99765.91
2023-05-07T15:36:14.985Z,99768.09
2023-05-07T15:38:43.706Z,99762.72
2023-05-07T15:41:12.609Z,99774.56
2023-05-07T15:43:46.802Z,99772.69
2023-05-07T15:46:20.837Z,99780.44
2023-05-07T15:48:51.138Z,99778.06
2023-05-07T15:51:20.888Z,99779.66
2023-05-07T15:53:49.268Z,99786.94
2023-05-07T15:56:17.946Z,99783.91
2023-05-07T15:58:46.666Z,99791.00
2023-05-07T16:01:15.758Z,99794.63
2023-05-07T16:03:44.975Z,99794.09
2023-05-07T16:06:15.372Z,99788.22
2023-05-07T16:11:36.532Z,99787.13
2023-05-07T16:14:05.274Z,99785.63
2023-05-07T16:16:35.067Z,99785.13
2023-05-07T16:19:04.053Z,99787.69
2023-05-07T16:21:32.974Z,99781.81
2023-05-07T16:24:01.938Z,99767.38
2023-05-07T16:26:30.990Z,99777.69
2023-05-07T16:29:02.207Z,99769.19
2023-05-07T16:31:31.727Z,99780.72
2023-05-07T16:34:01.228Z,99775.09
2023-05-07T16:36:30.030Z,99780.38
2023-05-07T16:38:58.947Z,99787.22
2023-05-07T16:41:27.884Z,99781.22
2023-05-07T16:43:57.938Z,99784.81
2023-05-07T16:46:28.224Z,99796.28
2023-05-07T16:48:57.520Z,99779.50
2023-05-07T16:51:26.303Z,99783.94
2023-05-07T16:53:55.190Z,99783.22
2023-05-07T16:56:23.907Z,99784.28
2023-05-07T16:58:52.727Z,99788.84
2023-05-07T17:01:21.757Z,99788.84
2023-05-07T17:03:52.149Z,99788.13
2023-05-07T17:06:21.104Z,99789.13
2023-05-07T17:08:51.701Z,99783.19
2023-05-07T17:11:21.133Z,99787.72
2023-05-07T17:13:50.537Z,99796.44
2023-05-07T17:16:20.255Z,99806.66
2023-05-07T17:18:49.204Z,99808.47
2023-05-07T17:21:19.415Z,99804.44
2023-05-07T17:23:48.285Z,99816.56
2023-05-07T17:26:17.901Z,99816.59
2023-05-07T17:28:46.424Z,99814.88
2023-05-07T17:31:15.188Z,99812.50
2023-05-07T17:33:43.904Z,99815.19
2023-05-07T17:36:12.658Z,99822.09
2023-05-07T17:38:43.045Z,99801.00
2023-05-07T17:41:11.887Z,99822.34
2023-05-07T17:43:40.678Z,99823.31
2023-05-07T17:46:10.343Z,99823.47
2023-05-07T17:48:39.290Z,99832.09
2023-05-07T17:51:07.998Z,99827.88
2023-05-07T17:53:36.955Z,99827.94
2023-05-07T17:56:07.228Z,99828.06
2023-05-07T17:58:45.458Z,99833.31
2023-05-07T18:01:25.446Z,99841.03
2023-05-07T18:03:54.738Z,99847.00
2023-05-07T18:06:24.266Z,99851.34
2023-05-07T18:08:54.721Z,99847.91
2023-05-07T18:11:25.443Z,99859.97
2023-05-07T18:13:54.239Z,99858.34
2023-05-07T18:16:23.064Z,99875.50
2023-05-07T18:18:52.150Z,99866.13
2023-05-07T18:21:21.373Z,99869.59
2023-05-07T18:23:51.704Z,99872.19
2023-05-07T18:26:20.502Z,99873.91
2023-05-07T18:28:50.630Z,99878.25
2023-05-07T18:31:20.913Z,99878.28
2023-05-07T18:33:52.272Z,99882.53
2023-05-07T18:36:21.171Z,99891.94
2023-05-07T18:38:49.940Z,99897.13
2023-05-07T18:41:18.832Z,99904.84
2023-05-07T18:43:48.306Z,99897.19
2023-05-07T18:46:18.720Z,99911.69
2023-05-07T18:48:47.571Z,99920.31
2023-05-07T18:51:16.577Z,99918.66
2023-05-07T18:53:45.334Z,99928.03
2023-05-07T18:56:14.101Z,99928.91
2023-05-07T18:58:42.892Z,99932.38
2023-05-07T19:01:11.681Z,99929.84
2023-05-07T19:03:41.904Z,99939.25
2023-05-07T19:06:10.829Z,99948.66
2023-05-07T19:08:39.575Z,99953.75
2023-05-07T19:11:08.800Z,99958.06
2023-05-07T19:13:37.553Z,99955.53
2023-05-07T19:16:10.562Z,99956.41
2023-05-07T19:18:40.202Z,99950.44
2023-05-07T19:21:10.313Z,99958.97
2023-05-07T19:23:42.205Z,99964.06
2023-05-07T19:26:11.334Z,99964.13
2023-05-07T19:28:45.360Z,99974.34
2023-05-07T19:31:22.899Z,99966.69
2023-05-07T19:33:51.734Z,99965.84
2023-05-07T19:36:22.006Z,99967.56
2023-05-07T19:38:53.449Z,99973.50
2023-05-07T19:41:22.888Z,99968.38
2023-05-07T19:43:51.719Z,99975.19
2023-05-07T19:46:20.743Z,99975.22
2023-05-07T19:48:49.607Z,99976.88
2023-05-07T19:51:18.330Z,99980.31
2023-05-07T19:53:48.578Z,99987.13
2023-05-07T19:56:17.421Z,99995.63
2023-05-07T19:58:46.176Z,99997.34
2023-05-07T20:01:15.018Z,99993.91
2023-05-07T20:03:43.878Z,100004.13
2023-05-07T20:06:12.729Z,99996.47
2023-05-07T20:08:43.738Z,100011.75
2023-05-07T20:11:14.404Z,100000.66
2023-05-07T20:13:43.436Z,100009.22
2023-05-07T20:16:12.075Z,100012.59
2023-05-07T20:18:41.144Z,100010.00
2023-05-07T20:21:10.366Z,99996.34
2023-05-07T20:23:39.139Z,100017.59
2023-05-07T20:26:07.864Z,100021.03
2023-05-07T20:28:38.235Z,100022.69
2023-05-07T20:31:07.154Z,100029.50
2023-05-07T20:33:35.919Z,100046.53
2023-05-07T20:36:05.000Z,100043.09
2023-05-07T20:38:34.799Z,100049.06
2023-05-07T20:41:08.274Z,100051.59
2023-05-07T20:43:38.969Z,100059.19
2023-05-07T20:46:08.766Z,100062.56
2023-05-07T20:48:37.571Z,100062.53
2023-05-07T20:51:06.586Z,100069.31
2023-05-07T20:53:37.779Z,100065.88
2023-05-07T20:56:06.769Z,100075.19
2023-05-07T20:58:35.516Z,100072.63
2023-05-07T21:01:07.413Z,100078.63
2023-05-07T21:03:36.340Z,100087.13
2023-05-07T21:06:05.205Z,100090.50
2023-05-07T21:08:34.389Z,100087.09
2023-05-07T21:11:03.304Z,100090.47
2023-05-07T21:13:32.292Z,100094.69
2023-05-07T21:16:01.751Z,100104.00
2023-05-07T21:18:32.173Z,100109.84
2023-05-07T21:21:01.420Z,100096.25
2023-05-07T21:23:30.192Z,100100.50
2023-05-07T21:25:59.043Z,100101.31
2023-05-07T21:28:27.784Z,100094.53
2023-05-07T21:30:56.644Z,100090.31
2023-05-07T21:33:25.336Z,100092.00
2023-05-07T21:35:55.727Z,100091.91
2023-05-07T21:38:24.520Z,100091.91
2023-05-07T21:40:53.206Z,100108.03
2023-05-07T21:43:22.454Z,100103.78
2023-05-07T21:45:51.106Z,100108.06
2023-05-07T21:48:22.257Z,100100.38
2023-05-07T21:51:00.219Z,100101.16
2023-05-07T21:53:30.882Z,100105.41
2023-05-07T21:56:00.435Z,100110.53
2023-05-07T21:58:31.069Z,100109.75
2023-05-07T22:01:01.464Z,100113.88
2023-05-07T22:03:30.512Z,100115.59
2023-05-07T22:05:59.672Z,100117.28
2023-05-07T22:08:30.878Z,100117.28
2023-05-07T22:10:59.792Z,100112.25
2023-05-07T22:13:28.563Z,100115.59
2023-05-07T22:15:58.650Z,100112.09
2023-05-07T22:18:27.744Z,100111.28
2023-05-07T22:20:56.937Z,100112.94
2023-05-07T22:23:25.749Z,100108.66
2023-05-07T22:25:56.382Z,100111.16
2023-05-07T22:28:25.354Z,100111.94
2023-05-07T22:30:54.682Z,100106.75
2023-05-07T22:33:23.461Z,100112.72
2023-05-07T22:35:52.160Z,100113.63
2023-05-07T22:38:21.104Z,100105.13
2023-05-07T22:40:49.877Z,100111.94
2023-05-07T22:43:20.970Z,100112.84
2023-05-07T22:45:49.895Z,100108.53
2023-05-07T22:48:18.740Z,100111.06
2023-05-07T22:50:48.273Z,100115.31
2023-05-07T22:53:16.955Z,100113.56
2023-05-07T22:55:46.233Z,100122.03
2023-05-07T22:58:14.959Z,100113.63
2023-05-07T23:00:45.320Z,100111.91
2023-05-07T23:03:14.493Z,100115.19
2023-05-07T23:05:44.297Z,100117.69
2023-05-07T23:08:13.461Z,100109.94
2023-05-07T23:10:42.273Z,100105.66
2023-05-07T23:13:17.554Z,100107.25
2023-05-07T23:15:49.042Z,100107.16
2023-05-07T23:18:18.056Z,100111.34
2023-05-07T23:20:46.746Z,100116.28
2023-05-07T23:23:15.663Z,100118.81
2023-05-07T23:25:44.445Z,100120.66
2023-05-07T23:28:13.646Z,100108.03
2023-05-07T23:30:42.458Z,100109.59
2023-05-07T23:33:12.657Z,100102.66
2023-05-07T23:35:41.570Z,100105.13
2023-05-07T23:38:10.327Z,100100.91
2023-05-07T23:40:39.130Z,100100.91
2023-05-07T23:43:07.863Z,100102.72
2023-05-07T23:45:36.788Z,100106.13
2023-05-07T23:48:05.831Z,100106.09
2023-05-07T23:50:36.230Z,100104.25
2023-05-07T23:53:05.075Z,100106.00
2023-05-07T23:55:33.859Z,100107.75
2023-05-07T23:58:02.889Z,100099.16
